sensor_id;sensor_type;location;lat;lon;timestamp;P1;durP1;ratioP1;P2;durP2;ratioP2
151;SDS011;68;48.792;9.164;2024-02-26T00:01:47;15.55;;;14.75;;
151;SDS011;68;48.792;9.164;2024-02-26T00:04:14;15.38;;;14.57;;
151;SDS011;68;48.792;9.164;2024-02-26T00:06:42;15.32;;;14.52;;
151;SDS011;68;48.792;9.164;2024-02-26T00:09:09;15.50;;;14.70;;
151;SDS011;68;48.792;9.164;2024-02-26T00:11:36;15.30;;;14.50;;
151;SDS011;68;48.792;9.164;2024-02-26T00:14:03;15.55;;;14.75;;
151;SDS011;68;48.792;9.164;2024-02-26T00:16:30;15.35;;;14.55;;
151;SDS011;68;48.792;9.164;2024-02-26T00:18:57;15.38;;;14.57;;
151;SDS011;68;48.792;9.164;2024-02-26T00:21:24;15.55;;;14.75;;
151;SDS011;68;48.792;9.164;2024-02-26T00:23:52;15.45;;;14.65;;
151;SDS011;68;48.792;9.164;2024-02-26T00:26:19;15.40;;;14.60;;
151;SDS011;68;48.792;9.164;2024-02-26T00:28:46;15.82;;;15.02;;
151;SDS011;68;48.792;9.164;2024-02-26T00:31:12;15.27;;;14.47;;
151;SDS011;68;48.792;9.164;2024-02-26T00:33:38;15.73;;;14.93;;
151;SDS011;68;48.792;9.164;2024-02-26T00:36:05;15.50;;;14.70;;
151;SDS011;68;48.792;9.164;2024-02-26T00:38:32;15.38;;;14.57;;
151;SDS011;68;48.792;9.164;2024-02-26T00:41:00;14.80;;;14.00;;
151;SDS011;68;48.792;9.164;2024-02-26T00:43:27;15.80;;;15.00;;
151;SDS011;68;48.792;9.164;2024-02-26T00:45:54;15.57;;;14.77;;
151;SDS011;68;48.792;9.164;2024-02-26T00:48:20;16.25;;;15.45;;
151;SDS011;68;48.792;9.164;2024-02-26T00:50:47;17.08;;;15.50;;
151;SDS011;68;48.792;9.164;2024-02-26T00:53:14;15.95;;;15.15;;
151;SDS011;68;48.792;9.164;2024-02-26T00:55:41;15.57;;;14.77;;
151;SDS011;68;48.792;9.164;2024-02-26T00:58:10;15.30;;;14.50;;
151;SDS011;68;48.792;9.164;2024-02-26T01:00:36;16.30;;;15.50;;
151;SDS011;68;48.792;9.164;2024-02-26T01:03:03;17.70;;;14.80;;
151;SDS011;68;48.792;9.164;2024-02-26T01:05:30;14.95;;;14.15;;
151;SDS011;68;48.792;9.164;2024-02-26T01:07:57;15.60;;;14.80;;
151;SDS011;68;48.792;9.164;2024-02-26T01:10:24;14.60;;;13.90;;
151;SDS011;68;48.792;9.164;2024-02-26T01:12:50;15.32;;;14.52;;
151;SDS011;68;48.792;9.164;2024-02-26T01:15:19;15.65;;;14.85;;
151;SDS011;68;48.792;9.164;2024-02-26T01:17:48;15.82;;;15.02;;
151;SDS011;68;48.792;9.164;2024-02-26T01:20:15;15.63;;;14.82;;
151;SDS011;68;48.792;9.164;2024-02-26T01:22:42;16.15;;;15.38;;
151;SDS011;68;48.792;9.164;2024-02-26T01:25:09;15.23;;;14.43;;
151;SDS011;68;48.792;9.164;2024-02-26T01:27:36;15.68;;;14.88;;
151;SDS011;68;48.792;9.164;2024-02-26T01:30:03;15.55;;;14.75;;
151;SDS011;68;48.792;9.164;2024-02-26T01:32:31;15.00;;;14.20;;
151;SDS011;68;48.792;9.164;2024-02-26T01:34:58;16.30;;;15.50;;
151;SDS011;68;48.792;9.164;2024-02-26T01:37:25;15.75;;;14.95;;
151;SDS011;68;48.792;9.164;2024-02-26T01:39:51;15.80;;;15.00;;
151;SDS011;68;48.792;9.164;2024-02-26T01:42:18;15.07;;;14.27;;
151;SDS011;68;48.792;9.164;2024-02-26T01:44:45;15.95;;;15.15;;
151;SDS011;68;48.792;9.164;2024-02-26T01:47:12;16.08;;;15.27;;
151;SDS011;68;48.792;9.164;2024-02-26T01:49:41;16.42;;;15.63;;
151;SDS011;68;48.792;9.164;2024-02-26T01:52:08;15.88;;;15.07;;
151;SDS011;68;48.792;9.164;2024-02-26T01:54:36;15.63;;;14.82;;
151;SDS011;68;48.792;9.164;2024-02-26T01:57:03;15.25;;;14.45;;
151;SDS011;68;48.792;9.164;2024-02-26T01:59:32;15.48;;;14.68;;
151;SDS011;68;48.792;9.164;2024-02-26T02:02:00;15.80;;;15.00;;
151;SDS011;68;48.792;9.164;2024-02-26T02:04:29;15.45;;;14.65;;
151;SDS011;68;48.792;9.164;2024-02-26T02:06:58;15.35;;;14.55;;
151;SDS011;68;48.792;9.164;2024-02-26T02:09:27;15.43;;;14.63;;
151;SDS011;68;48.792;9.164;2024-02-26T02:11:54;15.27;;;14.48;;
151;SDS011;68;48.792;9.164;2024-02-26T02:14:21;14.88;;;14.07;;
151;SDS011;68;48.792;9.164;2024-02-26T02:16:47;16.08;;;15.27;;
151;SDS011;68;48.792;9.164;2024-02-26T02:19:14;15.00;;;14.20;;
151;SDS011;68;48.792;9.164;2024-02-26T02:21:42;15.85;;;15.05;;
151;SDS011;68;48.792;9.164;2024-02-26T02:24:09;16.02;;;15.23;;
151;SDS011;68;48.792;9.164;2024-02-26T02:26:36;15.75;;;14.95;;
151;SDS011;68;48.792;9.164;2024-02-26T02:29:02;15.65;;;14.85;;
151;SDS011;68;48.792;9.164;2024-02-26T02:31:30;15.80;;;15.00;;
151;SDS011;68;48.792;9.164;2024-02-26T02:33:56;16.45;;;15.65;;
151;SDS011;68;48.792;9.164;2024-02-26T02:36:24;16.55;;;15.75;;
151;SDS011;68;48.792;9.164;2024-02-26T02:38:52;16.00;;;15.20;;
151;SDS011;68;48.792;9.164;2024-02-26T02:41:18;15.95;;;15.15;;
151;SDS011;68;48.792;9.164;2024-02-26T02:43:45;16.40;;;15.60;;
151;SDS011;68;48.792;9.164;2024-02-26T02:46:12;15.63;;;14.82;;
151;SDS011;68;48.792;9.164;2024-02-26T02:48:41;15.43;;;14.63;;
151;SDS011;68;48.792;9.164;2024-02-26T02:51:07;15.40;;;14.60;;
151;SDS011;68;48.792;9.164;2024-02-26T02:53:34;15.15;;;14.35;;
151;SDS011;68;48.792;9.164;2024-02-26T02:56:03;14.82;;;14.02;;
151;SDS011;68;48.792;9.164;2024-02-26T02:58:30;15.60;;;14.80;;
151;SDS011;68;48.792;9.164;2024-02-26T03:00:57;15.40;;;14.60;;
151;SDS011;68;48.792;9.164;2024-02-26T03:03:25;15.30;;;14.50;;
151;SDS011;68;48.792;9.164;2024-02-26T03:05:53;15.40;;;14.60;;
151;SDS011;68;48.792;9.164;2024-02-26T03:08:20;15.57;;;14.77;;
151;SDS011;68;48.792;9.164;2024-02-26T03:10:47;15.32;;;14.52;;
151;SDS011;68;48.792;9.164;2024-02-26T03:13:15;15.15;;;14.35;;
151;SDS011;68;48.792;9.164;2024-02-26T03:15:42;14.75;;;13.98;;
151;SDS011;68;48.792;9.164;2024-02-26T03:18:09;15.65;;;14.85;;
151;SDS011;68;48.792;9.164;2024-02-26T03:20:35;15.18;;;14.38;;
151;SDS011;68;48.792;9.164;2024-02-26T03:23:03;14.82;;;14.05;;
151;SDS011;68;48.792;9.164;2024-02-26T03:25:30;14.60;;;13.90;;
151;SDS011;68;48.792;9.164;2024-02-26T03:27:56;15.05;;;14.25;;
151;SDS011;68;48.792;9.164;2024-02-26T03:30:23;15.37;;;14.57;;
151;SDS011;68;48.792;9.164;2024-02-26T03:32:50;15.20;;;14.40;;
151;SDS011;68;48.792;9.164;2024-02-26T03:35:17;15.40;;;14.60;;
151;SDS011;68;48.792;9.164;2024-02-26T03:37:45;15.35;;;14.55;;
151;SDS011;68;48.792;9.164;2024-02-26T03:40:12;15.32;;;14.52;;
151;SDS011;68;48.792;9.164;2024-02-26T03:42:39;14.88;;;14.07;;
151;SDS011;68;48.792;9.164;2024-02-26T03:45:07;14.90;;;14.10;;
151;SDS011;68;48.792;9.164;2024-02-26T03:47:37;14.75;;;13.85;;
151;SDS011;68;48.792;9.164;2024-02-26T03:50:05;14.70;;;13.95;;
151;SDS011;68;48.792;9.164;2024-02-26T03:52:32;14.32;;;13.63;;
151;SDS011;68;48.792;9.164;2024-02-26T03:54:59;14.40;;;13.70;;
151;SDS011;68;48.792;9.164;2024-02-26T03:57:26;14.98;;;14.18;;
151;SDS011;68;48.792;9.164;2024-02-26T03:59:53;15.65;;;14.85;;
151;SDS011;68;48.792;9.164;2024-02-26T04:02:19;15.27;;;14.48;;
151;SDS011;68;48.792;9.164;2024-02-26T04:04:49;16.92;;;16.05;;
151;SDS011;68;48.792;9.164;2024-02-26T04:07:16;16.67;;;15.82;;
151;SDS011;68;48.792;9.164;2024-02-26T04:09:42;16.35;;;15.55;;
151;SDS011;68;48.792;9.164;2024-02-26T04:12:09;16.50;;;15.70;;
151;SDS011;68;48.792;9.164;2024-02-26T04:14:36;16.92;;;16.02;;
151;SDS011;68;48.792;9.164;2024-02-26T04:17:03;16.55;;;15.75;;
151;SDS011;68;48.792;9.164;2024-02-26T04:19:29;16.08;;;15.27;;
151;SDS011;68;48.792;9.164;2024-02-26T04:21:58;17.02;;;16.13;;
151;SDS011;68;48.792;9.164;2024-02-26T04:24:25;16.35;;;15.55;;
151;SDS011;68;48.792;9.164;2024-02-26T04:26:52;16.92;;;16.02;;
151;SDS011;68;48.792;9.164;2024-02-26T04:29:18;16.17;;;15.38;;
151;SDS011;68;48.792;9.164;2024-02-26T04:31:45;15.30;;;14.50;;
151;SDS011;68;48.792;9.164;2024-02-26T04:34:13;15.93;;;15.13;;
151;SDS011;68;48.792;9.164;2024-02-26T04:36:39;15.82;;;15.02;;
151;SDS011;68;48.792;9.164;2024-02-26T04:39:08;15.90;;;15.10;;
151;SDS011;68;48.792;9.164;2024-02-26T04:41:36;16.50;;;15.70;;
151;SDS011;68;48.792;9.164;2024-02-26T04:44:03;15.77;;;14.98;;
151;SDS011;68;48.792;9.164;2024-02-26T04:46:30;15.40;;;14.60;;
151;SDS011;68;48.792;9.164;2024-02-26T04:48:56;16.80;;;15.95;;
151;SDS011;68;48.792;9.164;2024-02-26T04:51:23;15.50;;;14.70;;
151;SDS011;68;48.792;9.164;2024-02-26T04:53:50;16.08;;;15.27;;
151;SDS011;68;48.792;9.164;2024-02-26T04:56:20;15.98;;;15.18;;
151;SDS011;68;48.792;9.164;2024-02-26T04:58:46;15.50;;;14.70;;
151;SDS011;68;48.792;9.164;2024-02-26T05:01:13;15.75;;;14.95;;
151;SDS011;68;48.792;9.164;2024-02-26T05:03:41;16.30;;;15.50;;
151;SDS011;68;48.792;9.164;2024-02-26T05:06:08;15.52;;;14.73;;
151;SDS011;68;48.792;9.164;2024-02-26T05:08:35;16.20;;;15.40;;
151;SDS011;68;48.792;9.164;2024-02-26T05:11:03;16.38;;;15.57;;
151;SDS011;68;48.792;9.164;2024-02-26T05:13:32;17.67;;;16.77;;
151;SDS011;68;48.792;9.164;2024-02-26T05:15:58;17.85;;;16.90;;
151;SDS011;68;48.792;9.164;2024-02-26T05:18:25;17.55;;;16.65;;
151;SDS011;68;48.792;9.164;2024-02-26T05:20:52;16.63;;;15.82;;
151;SDS011;68;48.792;9.164;2024-02-26T05:23:19;17.23;;;16.33;;
151;SDS011;68;48.792;9.164;2024-02-26T05:25:45;16.60;;;15.80;;
151;SDS011;68;48.792;9.164;2024-02-26T05:28:13;16.60;;;15.80;;
151;SDS011;68;48.792;9.164;2024-02-26T05:30:42;15.90;;;15.10;;
151;SDS011;68;48.792;9.164;2024-02-26T05:33:08;15.50;;;14.70;;
151;SDS011;68;48.792;9.164;2024-02-26T05:35:35;15.82;;;15.02;;
151;SDS011;68;48.792;9.164;2024-02-26T05:38:02;15.40;;;14.60;;
151;SDS011;68;48.792;9.164;2024-02-26T05:40:29;15.75;;;14.95;;
151;SDS011;68;48.792;9.164;2024-02-26T05:42:56;15.25;;;14.45;;
151;SDS011;68;48.792;9.164;2024-02-26T05:45:23;16.25;;;15.45;;
151;SDS011;68;48.792;9.164;2024-02-26T05:47:51;15.60;;;14.80;;
151;SDS011;68;48.792;9.164;2024-02-26T05:50:17;16.00;;;15.20;;
151;SDS011;68;48.792;9.164;2024-02-26T05:52:44;15.80;;;15.00;;
151;SDS011;68;48.792;9.164;2024-02-26T05:55:11;15.90;;;15.10;;
151;SDS011;68;48.792;9.164;2024-02-26T05:57:38;16.48;;;15.68;;
151;SDS011;68;48.792;9.164;2024-02-26T06:00:06;16.42;;;15.63;;
151;SDS011;68;48.792;9.164;2024-02-26T06:02:33;15.60;;;14.80;;
151;SDS011;68;48.792;9.164;2024-02-26T06:05:01;16.77;;;15.93;;
151;SDS011;68;48.792;9.164;2024-02-26T06:07:28;16.23;;;15.43;;
151;SDS011;68;48.792;9.164;2024-02-26T06:09:55;16.23;;;15.43;;
151;SDS011;68;48.792;9.164;2024-02-26T06:12:22;16.10;;;15.30;;
151;SDS011;68;48.792;9.164;2024-02-26T06:14:48;16.83;;;15.98;;
151;SDS011;68;48.792;9.164;2024-02-26T06:17:15;16.50;;;15.70;;
151;SDS011;68;48.792;9.164;2024-02-26T06:19:42;15.93;;;15.13;;
151;SDS011;68;48.792;9.164;2024-02-26T06:22:10;16.15;;;15.35;;
151;SDS011;68;48.792;9.164;2024-02-26T06:24:37;15.68;;;14.88;;
151;SDS011;68;48.792;9.164;2024-02-26T06:27:04;16.33;;;15.52;;
151;SDS011;68;48.792;9.164;2024-02-26T06:29:31;15.73;;;14.93;;
151;SDS011;68;48.792;9.164;2024-02-26T06:31:57;15.85;;;15.05;;
151;SDS011;68;48.792;9.164;2024-02-26T06:34:24;15.88;;;15.07;;
151;SDS011;68;48.792;9.164;2024-02-26T06:36:51;15.85;;;15.05;;
151;SDS011;68;48.792;9.164;2024-02-26T06:39:19;15.60;;;14.80;;
151;SDS011;68;48.792;9.164;2024-02-26T06:41:46;16.45;;;15.65;;
151;SDS011;68;48.792;9.164;2024-02-26T06:44:13;15.55;;;14.75;;
151;SDS011;68;48.792;9.164;2024-02-26T06:46:39;15.00;;;14.20;;
151;SDS011;68;48.792;9.164;2024-02-26T06:49:06;15.50;;;14.70;;
151;SDS011;68;48.792;9.164;2024-02-26T06:51:33;15.75;;;14.95;;
151;SDS011;68;48.792;9.164;2024-02-26T06:54:00;16.02;;;15.23;;
151;SDS011;68;48.792;9.164;2024-02-26T06:56:28;15.10;;;14.30;;
151;SDS011;68;48.792;9.164;2024-02-26T06:58:54;15.90;;;15.10;;
151;SDS011;68;48.792;9.164;2024-02-26T07:01:21;15.45;;;14.65;;
151;SDS011;68;48.792;9.164;2024-02-26T07:03:48;15.57;;;14.77;;
151;SDS011;68;48.792;9.164;2024-02-26T07:06:15;15.80;;;15.00;;
151;SDS011;68;48.792;9.164;2024-02-26T07:08:41;16.25;;;15.45;;
151;SDS011;68;48.792;9.164;2024-02-26T07:11:08;15.65;;;14.85;;
151;SDS011;68;48.792;9.164;2024-02-26T07:13:37;15.65;;;14.85;;
151;SDS011;68;48.792;9.164;2024-02-26T07:16:04;16.00;;;15.20;;
151;SDS011;68;48.792;9.164;2024-02-26T07:18:32;15.85;;;15.05;;
151;SDS011;68;48.792;9.164;2024-02-26T07:21:01;16.67;;;15.88;;
151;SDS011;68;48.792;9.164;2024-02-26T07:23:28;16.85;;;15.98;;
151;SDS011;68;48.792;9.164;2024-02-26T07:25:55;15.45;;;14.65;;
151;SDS011;68;48.792;9.164;2024-02-26T07:28:22;15.80;;;15.00;;
151;SDS011;68;48.792;9.164;2024-02-26T07:30:50;16.38;;;15.57;;
151;SDS011;68;48.792;9.164;2024-02-26T07:33:16;15.65;;;14.85;;
151;SDS011;68;48.792;9.164;2024-02-26T07:35:43;15.82;;;15.02;;
151;SDS011;68;48.792;9.164;2024-02-26T07:38:10;15.57;;;14.77;;
151;SDS011;68;48.792;9.164;2024-02-26T07:40:38;16.88;;;16.00;;
151;SDS011;68;48.792;9.164;2024-02-26T07:43:05;16.17;;;15.38;;
151;SDS011;68;48.792;9.164;2024-02-26T07:45:32;20.83;;;15.60;;
151;SDS011;68;48.792;9.164;2024-02-26T07:48:00;16.20;;;15.40;;
151;SDS011;68;48.792;9.164;2024-02-26T07:50:26;16.00;;;15.20;;
151;SDS011;68;48.792;9.164;2024-02-26T07:52:53;16.38;;;15.57;;
151;SDS011;68;48.792;9.164;2024-02-26T07:55:20;15.93;;;15.00;;
151;SDS011;68;48.792;9.164;2024-02-26T07:57:48;15.48;;;14.68;;
151;SDS011;68;48.792;9.164;2024-02-26T08:00:15;16.92;;;15.32;;
151;SDS011;68;48.792;9.164;2024-02-26T08:02:42;19.13;;;15.80;;
151;SDS011;68;48.792;9.164;2024-02-26T08:05:10;16.30;;;15.50;;
151;SDS011;68;48.792;9.164;2024-02-26T08:07:37;20.30;;;15.95;;
151;SDS011;68;48.792;9.164;2024-02-26T08:10:04;17.38;;;16.48;;
151;SDS011;68;48.792;9.164;2024-02-26T08:12:31;17.38;;;16.50;;
151;SDS011;68;48.792;9.164;2024-02-26T08:14:58;17.30;;;16.40;;
151;SDS011;68;48.792;9.164;2024-02-26T08:17:26;20.92;;;16.13;;
151;SDS011;68;48.792;9.164;2024-02-26T08:19:53;18.08;;;17.05;;
151;SDS011;68;48.792;9.164;2024-02-26T08:22:21;20.35;;;17.30;;
151;SDS011;68;48.792;9.164;2024-02-26T08:24:47;19.48;;;17.23;;
151;SDS011;68;48.792;9.164;2024-02-26T08:27:14;20.15;;;17.50;;
151;SDS011;68;48.792;9.164;2024-02-26T08:29:41;21.27;;;18.00;;
151;SDS011;68;48.792;9.164;2024-02-26T08:32:08;21.27;;;17.98;;
151;SDS011;68;48.792;9.164;2024-02-26T08:34:35;20.73;;;17.65;;
151;SDS011;68;48.792;9.164;2024-02-26T08:37:02;22.42;;;18.48;;
151;SDS011;68;48.792;9.164;2024-02-26T08:39:30;20.52;;;17.45;;
151;SDS011;68;48.792;9.164;2024-02-26T08:41:57;23.85;;;17.95;;
151;SDS011;68;48.792;9.164;2024-02-26T08:44:23;18.95;;;17.63;;
151;SDS011;68;48.792;9.164;2024-02-26T08:46:51;21.80;;;16.65;;
151;SDS011;68;48.792;9.164;2024-02-26T08:49:18;17.50;;;16.60;;
151;SDS011;68;48.792;9.164;2024-02-26T08:51:44;20.45;;;15.48;;
151;SDS011;68;48.792;9.164;2024-02-26T08:54:11;17.10;;;16.20;;
151;SDS011;68;48.792;9.164;2024-02-26T08:56:39;16.92;;;16.05;;
151;SDS011;68;48.792;9.164;2024-02-26T08:59:06;16.02;;;15.23;;
151;SDS011;68;48.792;9.164;2024-02-26T09:01:33;17.25;;;16.35;;
151;SDS011;68;48.792;9.164;2024-02-26T09:03:59;18.70;;;15.82;;
151;SDS011;68;48.792;9.164;2024-02-26T09:06:26;16.33;;;15.52;;
151;SDS011;68;48.792;9.164;2024-02-26T09:08:54;17.05;;;16.15;;
151;SDS011;68;48.792;9.164;2024-02-26T09:11:21;16.33;;;15.52;;
151;SDS011;68;48.792;9.164;2024-02-26T09:13:49;16.15;;;15.35;;
151;SDS011;68;48.792;9.164;2024-02-26T09:16:16;16.30;;;15.50;;
151;SDS011;68;48.792;9.164;2024-02-26T09:18:42;15.90;;;15.10;;
151;SDS011;68;48.792;9.164;2024-02-26T09:21:09;16.48;;;15.68;;
151;SDS011;68;48.792;9.164;2024-02-26T09:23:36;22.13;;;16.23;;
151;SDS011;68;48.792;9.164;2024-02-26T09:26:04;19.30;;;16.15;;
151;SDS011;68;48.792;9.164;2024-02-26T09:28:31;18.30;;;16.35;;
151;SDS011;68;48.792;9.164;2024-02-26T09:31:03;20.85;;;16.20;;
151;SDS011;68;48.792;9.164;2024-02-26T09:33:31;18.67;;;16.75;;
151;SDS011;68;48.792;9.164;2024-02-26T09:35:58;17.55;;;16.65;;
151;SDS011;68;48.792;9.164;2024-02-26T09:38:25;20.40;;;18.13;;
151;SDS011;68;48.792;9.164;2024-02-26T09:40:52;17.95;;;17.05;;
151;SDS011;68;48.792;9.164;2024-02-26T09:43:21;19.33;;;17.48;;
151;SDS011;68;48.792;9.164;2024-02-26T09:45:49;24.02;;;16.95;;
151;SDS011;68;48.792;9.164;2024-02-26T09:48:18;18.27;;;17.35;;
151;SDS011;68;48.792;9.164;2024-02-26T09:50:45;19.50;;;17.85;;
151;SDS011;68;48.792;9.164;2024-02-26T09:53:13;20.38;;;18.88;;
151;SDS011;68;48.792;9.164;2024-02-26T09:55:40;17.70;;;16.80;;
151;SDS011;68;48.792;9.164;2024-02-26T09:58:07;18.58;;;17.67;;
151;SDS011;68;48.792;9.164;2024-02-26T10:00:39;21.33;;;17.30;;
151;SDS011;68;48.792;9.164;2024-02-26T10:03:09;19.42;;;17.40;;
151;SDS011;68;48.792;9.164;2024-02-26T10:05:42;19.80;;;17.45;;
151;SDS011;68;48.792;9.164;2024-02-26T10:08:10;18.23;;;17.33;;
151;SDS011;68;48.792;9.164;2024-02-26T10:10:40;16.92;;;16.00;;
151;SDS011;68;48.792;9.164;2024-02-26T10:13:07;20.52;;;16.77;;
151;SDS011;68;48.792;9.164;2024-02-26T10:15:36;16.55;;;15.75;;
151;SDS011;68;48.792;9.164;2024-02-26T10:18:03;16.70;;;15.90;;
151;SDS011;68;48.792;9.164;2024-02-26T10:20:31;25.02;;;16.10;;
151;SDS011;68;48.792;9.164;2024-02-26T10:23:00;16.33;;;15.52;;
151;SDS011;68;48.792;9.164;2024-02-26T10:25:28;24.60;;;15.90;;
151;SDS011;68;48.792;9.164;2024-02-26T10:27:56;17.15;;;16.25;;
151;SDS011;68;48.792;9.164;2024-02-26T10:30:27;17.15;;;16.25;;
151;SDS011;68;48.792;9.164;2024-02-26T10:32:56;17.80;;;16.90;;
151;SDS011;68;48.792;9.164;2024-02-26T10:35:23;16.63;;;15.82;;
151;SDS011;68;48.792;9.164;2024-02-26T10:37:51;20.10;;;16.50;;
151;SDS011;68;48.792;9.164;2024-02-26T10:40:20;17.33;;;16.45;;
151;SDS011;68;48.792;9.164;2024-02-26T10:42:47;17.05;;;16.13;;
151;SDS011;68;48.792;9.164;2024-02-26T10:45:13;17.25;;;16.35;;
151;SDS011;68;48.792;9.164;2024-02-26T10:47:40;17.67;;;16.55;;
151;SDS011;68;48.792;9.164;2024-02-26T10:50:07;16.45;;;15.65;;
151;SDS011;68;48.792;9.164;2024-02-26T10:52:35;16.60;;;15.80;;
151;SDS011;68;48.792;9.164;2024-02-26T10:55:03;18.30;;;16.33;;
151;SDS011;68;48.792;9.164;2024-02-26T10:57:33;20.98;;;15.90;;
151;SDS011;68;48.792;9.164;2024-02-26T11:00:04;16.83;;;15.98;;
151;SDS011;68;48.792;9.164;2024-02-26T11:02:32;16.50;;;15.70;;
151;SDS011;68;48.792;9.164;2024-02-26T11:05:00;16.90;;;16.02;;
151;SDS011;68;48.792;9.164;2024-02-26T11:07:28;18.20;;;16.50;;
151;SDS011;68;48.792;9.164;2024-02-26T11:09:56;16.63;;;15.82;;
151;SDS011;68;48.792;9.164;2024-02-26T11:12:24;16.08;;;15.27;;
151;SDS011;68;48.792;9.164;2024-02-26T11:14:55;18.00;;;16.65;;
151;SDS011;68;48.792;9.164;2024-02-26T11:17:23;16.50;;;15.20;;
151;SDS011;68;48.792;9.164;2024-02-26T11:19:53;18.48;;;15.70;;
151;SDS011;68;48.792;9.164;2024-02-26T11:22:22;20.63;;;15.38;;
151;SDS011;68;48.792;9.164;2024-02-26T11:24:51;15.82;;;15.02;;
151;SDS011;68;48.792;9.164;2024-02-26T11:27:19;16.63;;;15.80;;
151;SDS011;68;48.792;9.164;2024-02-26T11:29:50;16.95;;;15.77;;
151;SDS011;68;48.792;9.164;2024-02-26T11:32:20;16.50;;;15.63;;
151;SDS011;68;48.792;9.164;2024-02-26T11:34:47;16.42;;;15.63;;
151;SDS011;68;48.792;9.164;2024-02-26T11:37:15;20.27;;;15.45;;
151;SDS011;68;48.792;9.164;2024-02-26T11:39:43;16.42;;;15.63;;
151;SDS011;68;48.792;9.164;2024-02-26T11:42:13;18.98;;;16.42;;
151;SDS011;68;48.792;9.164;2024-02-26T11:44:40;30.27;;;16.35;;
151;SDS011;68;48.792;9.164;2024-02-26T11:47:11;15.95;;;15.15;;
151;SDS011;68;48.792;9.164;2024-02-26T11:49:39;17.20;;;16.30;;
151;SDS011;68;48.792;9.164;2024-02-26T11:52:07;16.85;;;15.98;;
151;SDS011;68;48.792;9.164;2024-02-26T11:54:38;16.08;;;15.27;;
151;SDS011;68;48.792;9.164;2024-02-26T11:57:19;15.90;;;15.10;;
151;SDS011;68;48.792;9.164;2024-02-26T11:59:49;15.70;;;14.90;;
151;SDS011;68;48.792;9.164;2024-02-26T12:05:06;17.92;;;15.35;;
151;SDS011;68;48.792;9.164;2024-02-26T12:07:36;17.95;;;15.38;;
151;SDS011;68;48.792;9.164;2024-02-26T12:10:15;15.98;;;15.00;;
151;SDS011;68;48.792;9.164;2024-02-26T12:12:46;16.42;;;15.60;;
151;SDS011;68;48.792;9.164;2024-02-26T12:15:14;15.88;;;15.07;;
151;SDS011;68;48.792;9.164;2024-02-26T12:17:42;17.95;;;15.50;;
151;SDS011;68;48.792;9.164;2024-02-26T12:20:17;14.70;;;13.95;;
151;SDS011;68;48.792;9.164;2024-02-26T12:22:45;15.48;;;14.68;;
151;SDS011;68;48.792;9.164;2024-02-26T12:25:13;15.25;;;14.48;;
151;SDS011;68;48.792;9.164;2024-02-26T12:27:40;15.23;;;14.43;;
151;SDS011;68;48.792;9.164;2024-02-26T12:30:08;17.17;;;14.63;;
151;SDS011;68;48.792;9.164;2024-02-26T12:32:35;14.82;;;14.05;;
151;SDS011;68;48.792;9.164;2024-02-26T12:35:02;15.90;;;15.10;;
151;SDS011;68;48.792;9.164;2024-02-26T12:37:32;15.95;;;15.15;;
151;SDS011;68;48.792;9.164;2024-02-26T12:40:02;15.50;;;14.70;;
151;SDS011;68;48.792;9.164;2024-02-26T12:42:30;16.10;;;15.30;;
151;SDS011;68;48.792;9.164;2024-02-26T12:45:04;19.45;;;15.30;;
151;SDS011;68;48.792;9.164;2024-02-26T12:47:35;17.25;;;15.13;;
151;SDS011;68;48.792;9.164;2024-02-26T12:50:02;15.68;;;14.88;;
151;SDS011;68;48.792;9.164;2024-02-26T12:52:30;15.10;;;14.30;;
151;SDS011;68;48.792;9.164;2024-02-26T12:54:59;15.07;;;14.27;;
151;SDS011;68;48.792;9.164;2024-02-26T12:57:27;15.85;;;15.05;;
151;SDS011;68;48.792;9.164;2024-02-26T12:59:55;15.35;;;14.55;;
151;SDS011;68;48.792;9.164;2024-02-26T13:02:22;15.45;;;14.65;;
151;SDS011;68;48.792;9.164;2024-02-26T13:04:49;14.55;;;13.85;;
151;SDS011;68;48.792;9.164;2024-02-26T13:07:16;15.95;;;15.15;;
151;SDS011;68;48.792;9.164;2024-02-26T13:09:45;19.70;;;13.75;;
151;SDS011;68;48.792;9.164;2024-02-26T13:12:12;15.52;;;14.73;;
151;SDS011;68;48.792;9.164;2024-02-26T13:14:39;14.95;;;13.90;;
151;SDS011;68;48.792;9.164;2024-02-26T13:17:06;14.27;;;13.57;;
151;SDS011;68;48.792;9.164;2024-02-26T13:19:33;14.40;;;13.70;;
151;SDS011;68;48.792;9.164;2024-02-26T13:22:03;14.32;;;13.63;;
151;SDS011;68;48.792;9.164;2024-02-26T13:24:31;14.10;;;13.40;;
151;SDS011;68;48.792;9.164;2024-02-26T13:26:59;14.02;;;13.32;;
151;SDS011;68;48.792;9.164;2024-02-26T13:29:28;14.57;;;13.88;;
151;SDS011;68;48.792;9.164;2024-02-26T13:31:55;17.20;;;13.38;;
151;SDS011;68;48.792;9.164;2024-02-26T13:34:23;14.25;;;13.55;;
151;SDS011;68;48.792;9.164;2024-02-26T13:36:51;14.32;;;13.63;;
151;SDS011;68;48.792;9.164;2024-02-26T13:39:21;14.75;;;13.98;;
151;SDS011;68;48.792;9.164;2024-02-26T13:41:49;13.82;;;13.13;;
151;SDS011;68;48.792;9.164;2024-02-26T13:44:19;14.85;;;13.70;;
151;SDS011;68;48.792;9.164;2024-02-26T13:46:46;13.73;;;13.02;;
151;SDS011;68;48.792;9.164;2024-02-26T13:49:14;14.48;;;13.77;;
151;SDS011;68;48.792;9.164;2024-02-26T13:51:41;14.80;;;13.80;;
151;SDS011;68;48.792;9.164;2024-02-26T13:54:08;15.13;;;14.32;;
151;SDS011;68;48.792;9.164;2024-02-26T13:56:35;14.20;;;13.50;;
151;SDS011;68;48.792;9.164;2024-02-26T13:59:02;14.35;;;13.65;;
151;SDS011;68;48.792;9.164;2024-02-26T14:01:32;15.00;;;14.20;;
151;SDS011;68;48.792;9.164;2024-02-26T14:03:59;14.23;;;13.52;;
151;SDS011;68;48.792;9.164;2024-02-26T14:06:27;14.70;;;13.95;;
151;SDS011;68;48.792;9.164;2024-02-26T14:08:55;15.20;;;14.40;;
151;SDS011;68;48.792;9.164;2024-02-26T14:11:22;15.13;;;14.27;;
151;SDS011;68;48.792;9.164;2024-02-26T14:13:50;15.15;;;14.35;;
151;SDS011;68;48.792;9.164;2024-02-26T14:16:17;15.23;;;14.43;;
151;SDS011;68;48.792;9.164;2024-02-26T14:18:46;15.00;;;14.20;;
151;SDS011;68;48.792;9.164;2024-02-26T14:21:13;15.23;;;14.18;;
151;SDS011;68;48.792;9.164;2024-02-26T14:23:40;14.45;;;13.75;;
151;SDS011;68;48.792;9.164;2024-02-26T14:26:09;15.00;;;14.15;;
151;SDS011;68;48.792;9.164;2024-02-26T14:28:36;14.30;;;13.60;;
151;SDS011;68;48.792;9.164;2024-02-26T14:31:03;14.20;;;13.50;;
151;SDS011;68;48.792;9.164;2024-02-26T14:33:30;14.00;;;13.30;;
151;SDS011;68;48.792;9.164;2024-02-26T14:35:59;20.92;;;13.70;;
151;SDS011;68;48.792;9.164;2024-02-26T14:38:25;13.82;;;13.13;;
151;SDS011;68;48.792;9.164;2024-02-26T14:40:52;13.90;;;13.20;;
151;SDS011;68;48.792;9.164;2024-02-26T14:43:19;13.93;;;13.23;;
151;SDS011;68;48.792;9.164;2024-02-26T14:45:46;14.13;;;13.43;;
151;SDS011;68;48.792;9.164;2024-02-26T14:48:12;13.93;;;13.23;;
151;SDS011;68;48.792;9.164;2024-02-26T14:50:39;13.85;;;13.15;;
151;SDS011;68;48.792;9.164;2024-02-26T14:53:07;16.08;;;13.07;;
151;SDS011;68;48.792;9.164;2024-02-26T14:55:34;14.13;;;13.43;;
151;SDS011;68;48.792;9.164;2024-02-26T14:58:01;13.90;;;13.20;;
151;SDS011;68;48.792;9.164;2024-02-26T15:00:27;15.93;;;13.20;;
151;SDS011;68;48.792;9.164;2024-02-26T15:02:54;13.25;;;12.55;;
151;SDS011;68;48.792;9.164;2024-02-26T15:05:21;14.35;;;13.65;;
151;SDS011;68;48.792;9.164;2024-02-26T15:07:49;13.50;;;12.80;;
151;SDS011;68;48.792;9.164;2024-02-26T15:10:17;13.45;;;12.75;;
151;SDS011;68;48.792;9.164;2024-02-26T15:12:44;14.23;;;13.52;;
151;SDS011;68;48.792;9.164;2024-02-26T15:15:11;13.40;;;12.70;;
151;SDS011;68;48.792;9.164;2024-02-26T15:17:37;13.68;;;12.98;;
151;SDS011;68;48.792;9.164;2024-02-26T15:20:05;13.55;;;12.85;;
151;SDS011;68;48.792;9.164;2024-02-26T15:22:33;13.38;;;12.60;;
151;SDS011;68;48.792;9.164;2024-02-26T15:25:00;13.15;;;12.45;;
151;SDS011;68;48.792;9.164;2024-02-26T15:27:28;13.18;;;12.48;;
151;SDS011;68;48.792;9.164;2024-02-26T15:29:55;13.27;;;12.57;;
151;SDS011;68;48.792;9.164;2024-02-26T15:32:25;19.52;;;13.13;;
151;SDS011;68;48.792;9.164;2024-02-26T15:34:52;14.40;;;13.70;;